• Join FlightAware (Why Join?)
  • Login
  • US Flag 
03:11AM EST


 

Airport Tracker/Info


-or-


 

Live Flight TrackerFlight Track Log ✈ TAM3959 ✈ 19-Sep-2013 ✈ SBRJ / SDU - SBSP / CGH

Flight Track Log - Related Links

Times and Time Zones

All times are in EDT time to prevent confusion due to time zone crossing. See the TAM3959 flight status page for this flight to view local times or setup timezone preferences in your user account.

Time Position Orientation Groundspeed Altitude Reporting Facility
EDT Latitude Longitude Course Direction KTS MPH feet Rate Location/Type
08:11PM -23.4541 -45.7747 257° West  Level Estimated
08:12PM -23.4734 -45.8718 258° West  Level Estimated
08:13PM -23.4926 -45.9690 258° West  Level Estimated
08:14PM -23.5118 -46.0662 258° West  Level Estimated
08:15PM -23.5309 -46.1634 258° West  Level Estimated
08:16PM -23.5500 -46.2606 258° West  Level Estimated
08:17PM -23.5690 -46.3579 258° West  Level Estimated
08:18PM -23.5879 -46.4552 258° West  Level Estimated
08:19PM -23.6068 -46.5525 258° West  Level Estimated
08:20PM -23.6256 -46.6498 258° West  Level Estimated
08:21PM -23.6267 -46.6554 258° West  Level Estimated
08:22PM -23.6267 -46.6554 114° Southeast  Level Estimated
08:23PM -23.6267 -46.6554 114° Southeast  Level Estimated
08:24PM -23.6267 -46.6554 114° Southeast  Level Estimated
08:25PM -23.6267 -46.6554 114° Southeast  Level Estimated
08:26PM -23.6267 -46.6554 114° Southeast  Level Estimated
08:27PM -23.6267 -46.6554 114° Southeast  Level Estimated
08:28PM -23.6267 -46.6554 114° Southeast  Level Estimated
08:29PM -23.6267 -46.6554 114° Southeast  Level Estimated
08:30PM -23.6267 -46.6554 114° Southeast  Level Estimated
08:31PM -23.6267 -46.6554 114° Southeast  Level Estimated
08:32PM -23.6267 -46.6554 114° Southeast  Level Estimated
08:33PM -23.6267 -46.6554 114° Southeast  Level Estimated
08:34PM -23.6267 -46.6554 114° Southeast  Level Estimated
08:35PM -23.6267 -46.6554 114° Southeast  Level Estimated
08:36PM -23.6267 -46.6554 114° Southeast  Level Estimated